Time;durP1;ratioP1;P1;durP2;ratioP2;P2;SDS_P1;SDS_P2;PMS_P1;PMS_P2;Temp;Humidity;BMP_temperature;BMP_pressure;BME280_temperature;BME280_humidity;BME280_pressure;Samples;Min_cycle;Max_cycle;Signal;HPM_P1;HPM_P2
2023/08/23 00:02:20;;;;;;;15.60;10.60;;;;;;;;;;4986119;28;20281;-57
2023/08/23 00:04:46;;;;;;;14.17;10.27;;;;;;;;;;5005593;28;20281;-56
2023/08/23 00:07:11;;;;;;;15.83;11.03;;;;;;;;;;4974435;28;20339;-57
2023/08/23 00:09:36;;;;;;;16.53;11.10;;;;;;;;;;5027086;28;20288;-57
2023/08/23 00:12:01;;;;;;;15.38;10.65;;;;;;;;;;5026994;28;20123;-57
2023/08/23 00:14:26;;;;;;;15.73;10.05;;;;;;;;;;5021816;28;20076;-58
2023/08/23 00:16:52;;;;;;;16.40;11.07;;;;;;;;;;5006881;28;20495;-57
2023/08/23 00:19:17;;;;;;;15.75;10.93;;;;;;;;;;5012790;28;20700;-57
2023/08/23 00:21:42;;;;;;;13.43;10.65;;;;;;;;;;5008996;28;20042;-57
2023/08/23 00:24:08;;;;;;;13.77;10.75;;;;;;;;;;5008964;28;20099;-57
2023/08/23 00:26:33;;;;;;;14.30;11.27;;;;;;;;;;5017709;28;20041;-56
2023/08/23 00:28:58;;;;;;;16.40;11.23;;;;;;;;;;5006870;28;20339;-56
2023/08/23 00:31:23;;;;;;;19.47;10.43;;;;;;;;;;5006257;28;20372;-55
2023/08/23 00:33:49;;;;;;;16.30;10.37;;;;;;;;;;4987612;28;20293;-55
2023/08/23 00:36:14;;;;;;;15.10;10.13;;;;;;;;;;4989347;28;20288;-56
2023/08/23 00:38:39;;;;;;;13.30;10.07;;;;;;;;;;4997821;28;20363;-58
2023/08/23 00:41:04;;;;;;;15.30;10.33;;;;;;;;;;5026180;28;20276;-56
2023/08/23 00:43:29;;;;;;;14.07;10.27;;;;;;;;;;5025374;28;20045;-57
2023/08/23 00:45:55;;;;;;;11.77;10.07;;;;;;;;;;5007027;28;20049;-57
2023/08/23 00:48:20;;;;;;;11.37;10.20;;;;;;;;;;4998015;28;20044;-57
2023/08/23 00:50:45;;;;;;;13.73;10.45;;;;;;;;;;5011183;28;20038;-57
2023/08/23 00:53:11;;;;;;;14.63;10.70;;;;;;;;;;5006422;28;20030;-56
2023/08/23 00:55:36;;;;;;;12.02;9.93;;;;;;;;;;5006731;28;20930;-57
2023/08/23 00:58:01;;;;;;;14.20;10.77;;;;;;;;;;4978303;28;20045;-56
2023/08/23 01:00:26;;;;;;;13.50;10.68;;;;;;;;;;5007622;28;20041;-55
2023/08/23 01:02:52;;;;;;;12.98;10.63;;;;;;;;;;5024711;28;20455;-58
2023/08/23 01:05:17;;;;;;;13.13;10.32;;;;;;;;;;5008685;28;20120;-57
2023/08/23 01:07:45;;;;;;;13.40;10.50;;;;;;;;;;4982996;28;20038;-57
2023/08/23 01:10:20;;;;;;;13.25;10.20;;;;;;;;;;5015537;28;20108;-57
2023/08/23 01:12:49;;;;;;;14.43;10.00;;;;;;;;;;4988574;28;20034;-56
2023/08/23 01:15:14;;;;;;;14.25;10.35;;;;;;;;;;5025643;28;20025;-56
2023/08/23 01:17:42;;;;;;;13.17;10.23;;;;;;;;;;4993276;28;20096;-57
2023/08/23 01:20:10;;;;;;;11.55;9.57;;;;;;;;;;5007616;28;20037;-57
2023/08/23 01:22:37;;;;;;;12.02;10.18;;;;;;;;;;5004709;28;20018;-57
2023/08/23 01:25:02;;;;;;;14.48;10.77;;;;;;;;;;4988140;28;20393;-57
2023/08/23 01:27:28;;;;;;;13.25;10.65;;;;;;;;;;4999934;28;20025;-57
2023/08/23 01:29:53;;;;;;;12.95;10.70;;;;;;;;;;5002408;28;21624;-57
2023/08/23 01:32:37;;;;;;;15.57;11.47;;;;;;;;;;4986539;28;20870;-57
2023/08/23 01:35:11;;;;;;;14.65;11.70;;;;;;;;;;4968735;28;20093;-57
2023/08/23 01:37:37;;;;;;;14.07;10.98;;;;;;;;;;4979333;28;20038;-56
2023/08/23 01:40:03;;;;;;;15.75;11.30;;;;;;;;;;4996626;28;20056;-57
2023/08/23 01:42:28;;;;;;;14.57;10.93;;;;;;;;;;5008768;28;20037;-57
2023/08/23 01:44:53;;;;;;;14.43;10.37;;;;;;;;;;5007770;28;20072;-57
2023/08/23 01:47:19;;;;;;;14.60;10.50;;;;;;;;;;5017485;28;20045;-57
2023/08/23 01:49:44;;;;;;;12.80;10.43;;;;;;;;;;5005299;28;20038;-57
2023/08/23 01:52:09;;;;;;;15.52;11.23;;;;;;;;;;5005086;28;20080;-57
2023/08/23 01:54:34;;;;;;;15.93;10.77;;;;;;;;;;5007113;28;20038;-57
2023/08/23 01:57:00;;;;;;;13.97;10.30;;;;;;;;;;5008848;28;20309;-57
2023/08/23 01:59:25;;;;;;;15.03;11.40;;;;;;;;;;5008317;28;20296;-57
2023/08/23 02:01:50;;;;;;;12.47;11.10;;;;;;;;;;5005082;28;20289;-57
2023/08/23 02:04:16;;;;;;;15.13;11.27;;;;;;;;;;5004952;28;20303;-57
2023/08/23 02:06:43;;;;;;;15.02;11.20;;;;;;;;;;5005076;28;20410;-57
2023/08/23 02:09:08;;;;;;;13.02;11.13;;;;;;;;;;5006229;28;20582;-57
2023/08/23 02:11:36;;;;;;;14.85;11.27;;;;;;;;;;4993848;28;20072;-57
2023/08/23 02:14:01;;;;;;;17.05;11.30;;;;;;;;;;5007431;28;20150;-56
2023/08/23 02:16:28;;;;;;;16.07;11.23;;;;;;;;;;5007130;28;20064;-57
2023/08/23 02:18:53;;;;;;;12.55;11.23;;;;;;;;;;5013543;28;20287;-56
2023/08/23 02:21:18;;;;;;;13.93;10.73;;;;;;;;;;5024042;28;20060;-57
2023/08/23 02:23:44;;;;;;;13.43;11.47;;;;;;;;;;5024312;28;20518;-57
2023/08/23 02:26:09;;;;;;;14.88;11.35;;;;;;;;;;5027986;28;20677;-57
2023/08/23 02:28:34;;;;;;;14.80;12.13;;;;;;;;;;5004893;28;20046;-57
2023/08/23 02:31:00;;;;;;;15.45;12.25;;;;;;;;;;5004452;28;20400;-56
2023/08/23 02:33:25;;;;;;;13.93;11.05;;;;;;;;;;5004496;28;20038;-57
2023/08/23 02:35:51;;;;;;;18.90;12.13;;;;;;;;;;5016305;28;20068;-57
2023/08/23 02:38:16;;;;;;;16.08;12.32;;;;;;;;;;5012451;28;20323;-57
2023/08/23 02:40:42;;;;;;;15.63;11.20;;;;;;;;;;5004292;28;20072;-57
2023/08/23 02:43:07;;;;;;;14.55;12.10;;;;;;;;;;5022206;28;20069;-57
2023/08/23 02:45:33;;;;;;;14.93;11.02;;;;;;;;;;5024250;28;20222;-57
2023/08/23 02:47:58;;;;;;;14.20;11.00;;;;;;;;;;5016028;28;20037;-57
2023/08/23 02:50:23;;;;;;;13.80;11.50;;;;;;;;;;5003142;28;20038;-57
2023/08/23 02:52:48;;;;;;;15.60;11.17;;;;;;;;;;5004115;28;20071;-57
2023/08/23 02:55:13;;;;;;;14.13;11.73;;;;;;;;;;5004422;28;20376;-58
2023/08/23 02:57:39;;;;;;;12.93;11.33;;;;;;;;;;5004200;28;20121;-57
2023/08/23 03:00:04;;;;;;;12.23;10.27;;;;;;;;;;5013378;28;20343;-57
2023/08/23 03:02:29;;;;;;;13.40;11.07;;;;;;;;;;5002923;28;20281;-58
2023/08/23 03:04:56;;;;;;;13.97;11.87;;;;;;;;;;5004407;28;20068;-58
2023/08/23 03:07:21;;;;;;;16.33;12.35;;;;;;;;;;5004402;28;20363;-57
2023/08/23 03:09:46;;;;;;;15.83;12.40;;;;;;;;;;5004133;28;20493;-57
2023/08/23 03:12:11;;;;;;;15.93;11.53;;;;;;;;;;5004199;28;20902;-57
2023/08/23 03:14:37;;;;;;;14.00;11.37;;;;;;;;;;4987234;28;20351;-57
2023/08/23 03:17:02;;;;;;;14.95;11.48;;;;;;;;;;5022799;28;20268;-57
2023/08/23 03:19:27;;;;;;;15.07;10.97;;;;;;;;;;4987323;28;20373;-57
2023/08/23 03:21:52;;;;;;;14.52;11.90;;;;;;;;;;4986326;28;20726;-57
2023/08/23 03:24:17;;;;;;;17.07;12.07;;;;;;;;;;5004379;28;20048;-57
2023/08/23 03:26:43;;;;;;;18.30;12.07;;;;;;;;;;5003755;28;20308;-57
2023/08/23 03:29:08;;;;;;;15.23;11.53;;;;;;;;;;5003437;28;21044;-57
2023/08/23 03:31:33;;;;;;;16.23;12.17;;;;;;;;;;4969772;28;20852;-57
2023/08/23 03:33:58;;;;;;;13.73;11.03;;;;;;;;;;5004271;28;20492;-57
2023/08/23 03:36:24;;;;;;;13.13;11.63;;;;;;;;;;4986216;28;20551;-57
2023/08/23 03:38:49;;;;;;;15.27;11.85;;;;;;;;;;5003679;28;20664;-56
2023/08/23 03:41:14;;;;;;;17.10;12.27;;;;;;;;;;5004217;28;20053;-57
2023/08/23 03:43:39;;;;;;;15.07;12.07;;;;;;;;;;5008304;28;20034;-57
2023/08/23 03:46:05;;;;;;;15.77;11.83;;;;;;;;;;5018398;28;20044;-58
2023/08/23 03:48:30;;;;;;;15.27;12.48;;;;;;;;;;5019714;28;20714;-57
2023/08/23 03:50:59;;;;;;;14.27;11.80;;;;;;;;;;5014700;28;20064;-57
2023/08/23 03:53:24;;;;;;;16.20;11.50;;;;;;;;;;5008018;28;20273;-57
2023/08/23 03:55:53;;;;;;;14.80;11.53;;;;;;;;;;4989983;28;20097;-57
2023/08/23 03:58:19;;;;;;;14.95;12.18;;;;;;;;;;5007545;28;20345;-57
2023/08/23 04:00:48;;;;;;;15.75;12.85;;;;;;;;;;5008620;28;20073;-57
2023/08/23 04:03:13;;;;;;;17.93;12.37;;;;;;;;;;5007525;28;20048;-56
2023/08/23 04:05:39;;;;;;;19.03;14.97;;;;;;;;;;5012462;28;20038;-57
2023/08/23 04:08:06;;;;;;;22.75;17.20;;;;;;;;;;5007411;28;20277;-56
2023/08/23 04:10:32;;;;;;;16.45;12.68;;;;;;;;;;4999974;28;20121;-57
2023/08/23 04:12:57;;;;;;;16.02;12.60;;;;;;;;;;5027489;28;20060;-56
2023/08/23 04:15:22;;;;;;;14.57;12.27;;;;;;;;;;5009233;28;20439;-56
2023/08/23 04:17:48;;;;;;;16.17;13.00;;;;;;;;;;4990339;28;20838;-56
2023/08/23 04:20:14;;;;;;;15.02;12.30;;;;;;;;;;4988678;28;20459;-57
2023/08/23 04:22:39;;;;;;;14.88;11.95;;;;;;;;;;5007994;28;20041;-57
2023/08/23 04:25:05;;;;;;;17.65;12.57;;;;;;;;;;5016671;28;20040;-57
2023/08/23 04:27:30;;;;;;;18.15;13.30;;;;;;;;;;4998166;28;20564;-57
2023/08/23 04:29:55;;;;;;;17.83;12.43;;;;;;;;;;4988456;28;20034;-57
2023/08/23 04:32:20;;;;;;;17.03;12.93;;;;;;;;;;5011117;28;20034;-57
2023/08/23 04:34:46;;;;;;;14.50;12.10;;;;;;;;;;5024218;28;20046;-57
2023/08/23 04:37:11;;;;;;;14.03;11.83;;;;;;;;;;5007077;28;20805;-57
2023/08/23 04:39:36;;;;;;;15.82;13.07;;;;;;;;;;4999569;28;20300;-58
2023/08/23 04:42:02;;;;;;;16.13;12.43;;;;;;;;;;5005562;28;20030;-57
2023/08/23 04:44:27;;;;;;;17.67;12.90;;;;;;;;;;5006153;28;20628;-57
2023/08/23 04:46:52;;;;;;;16.27;12.55;;;;;;;;;;4988198;28;20519;-57
2023/08/23 04:49:18;;;;;;;18.92;12.93;;;;;;;;;;5008120;28;20048;-57
2023/08/23 04:51:43;;;;;;;15.30;13.00;;;;;;;;;;5007000;28;20030;-57
2023/08/23 04:54:08;;;;;;;16.27;13.18;;;;;;;;;;5008896;28;20290;-57
2023/08/23 04:56:34;;;;;;;14.90;12.53;;;;;;;;;;5024715;28;20036;-56
2023/08/23 04:58:59;;;;;;;17.05;11.95;;;;;;;;;;5001318;28;20158;-55
2023/08/23 05:01:24;;;;;;;17.95;12.43;;;;;;;;;;4994860;28;20116;-55
2023/08/23 05:03:49;;;;;;;14.70;11.43;;;;;;;;;;5000521;28;20115;-56
2023/08/23 05:06:15;;;;;;;15.57;12.23;;;;;;;;;;4992273;28;20383;-56
2023/08/23 05:08:40;;;;;;;15.02;11.50;;;;;;;;;;4973717;28;20078;-57
2023/08/23 05:11:05;;;;;;;18.83;11.73;;;;;;;;;;4983008;28;20062;-58
2023/08/23 05:13:31;;;;;;;14.00;11.88;;;;;;;;;;4995097;28;20692;-57
2023/08/23 05:15:56;;;;;;;16.13;12.20;;;;;;;;;;4993551;28;20041;-57
2023/08/23 05:18:22;;;;;;;16.75;12.05;;;;;;;;;;4983595;28;20332;-56
2023/08/23 05:20:51;;;;;;;16.08;11.90;;;;;;;;;;4978242;28;20463;-56
2023/08/23 05:23:16;;;;;;;16.55;11.32;;;;;;;;;;4997392;28;20115;-55
2023/08/23 05:25:42;;;;;;;14.43;10.90;;;;;;;;;;4994391;28;20695;-56
2023/08/23 05:28:07;;;;;;;14.02;12.02;;;;;;;;;;4972888;28;20560;-55
2023/08/23 05:30:34;;;;;;;14.90;11.40;;;;;;;;;;4995026;28;20042;-56
2023/08/23 05:32:59;;;;;;;13.55;11.02;;;;;;;;;;4994867;28;20868;-54
2023/08/23 05:35:24;;;;;;;12.98;11.20;;;;;;;;;;4993245;28;20140;-54
2023/08/23 05:37:50;;;;;;;16.47;11.00;;;;;;;;;;4993545;28;20037;-54
2023/08/23 05:40:15;;;;;;;16.57;11.90;;;;;;;;;;4987886;28;20478;-56
2023/08/23 05:42:40;;;;;;;15.27;11.73;;;;;;;;;;5009451;28;20682;-56
2023/08/23 05:45:06;;;;;;;15.03;11.73;;;;;;;;;;4970389;28;20305;-56
2023/08/23 05:47:31;;;;;;;14.35;11.57;;;;;;;;;;4993166;28;20354;-56
2023/08/23 05:49:56;;;;;;;14.35;11.38;;;;;;;;;;4990666;28;20484;-54
2023/08/23 05:52:21;;;;;;;15.10;11.20;;;;;;;;;;4992539;28;20037;-55
2023/08/23 05:54:47;;;;;;;14.77;11.67;;;;;;;;;;4992903;28;20934;-56
2023/08/23 05:57:12;;;;;;;14.13;11.60;;;;;;;;;;4977809;28;20413;-56
2023/08/23 05:59:37;;;;;;;13.65;11.48;;;;;;;;;;4974896;28;20058;-55
2023/08/23 06:02:02;;;;;;;14.83;11.10;;;;;;;;;;4991895;28;20034;-55
2023/08/23 06:04:28;;;;;;;13.13;11.40;;;;;;;;;;4977361;28;20368;-57
2023/08/23 06:06:53;;;;;;;13.60;12.03;;;;;;;;;;4971959;28;20301;-55
2023/08/23 06:09:18;;;;;;;15.57;11.30;;;;;;;;;;4973317;28;20301;-55
2023/08/23 06:11:43;;;;;;;15.95;11.77;;;;;;;;;;4992512;28;20034;-55
2023/08/23 06:14:21;;;;;;;14.00;11.90;;;;;;;;;;5000240;28;20728;-55
2023/08/23 06:16:47;;;;;;;16.80;12.05;;;;;;;;;;5005989;28;20308;-57
2023/08/23 06:19:12;;;;;;;14.67;11.40;;;;;;;;;;4987827;28;20045;-55
2023/08/23 06:21:37;;;;;;;13.53;11.07;;;;;;;;;;4991665;28;20348;-55
2023/08/23 06:24:03;;;;;;;15.35;12.43;;;;;;;;;;4992616;28;20288;-58
2023/08/23 06:26:29;;;;;;;15.27;12.20;;;;;;;;;;4993697;28;20073;-57
2023/08/23 06:28:54;;;;;;;17.83;13.73;;;;;;;;;;4991505;28;20083;-59
2023/08/23 06:31:20;;;;;;;16.67;13.23;;;;;;;;;;4991674;28;21986;-58
2023/08/23 06:33:45;;;;;;;20.38;13.48;;;;;;;;;;4991103;28;20297;-57
2023/08/23 06:36:10;;;;;;;16.90;12.73;;;;;;;;;;4992118;28;20053;-57
2023/08/23 06:38:35;;;;;;;18.13;13.10;;;;;;;;;;4991947;28;20312;-57
2023/08/23 06:41:00;;;;;;;18.60;12.83;;;;;;;;;;4997678;28;20046;-57
2023/08/23 06:43:26;;;;;;;14.93;13.03;;;;;;;;;;4974566;28;20460;-57
2023/08/23 06:45:51;;;;;;;19.63;13.03;;;;;;;;;;4995175;28;20045;-55
2023/08/23 06:48:16;;;;;;;14.00;11.68;;;;;;;;;;4998351;28;20301;-56
2023/08/23 06:50:42;;;;;;;13.75;11.50;;;;;;;;;;4997159;28;20079;-56
2023/08/23 06:53:07;;;;;;;17.80;12.55;;;;;;;;;;4994372;28;20038;-55
2023/08/23 06:55:32;;;;;;;18.30;13.38;;;;;;;;;;4999349;28;20207;-55
2023/08/23 06:57:58;;;;;;;17.25;13.80;;;;;;;;;;4998314;28;20619;-56
2023/08/23 07:00:23;;;;;;;19.30;13.60;;;;;;;;;;4996624;28;20030;-57
2023/08/23 07:02:49;;;;;;;16.47;12.50;;;;;;;;;;5001494;28;20038;-57
2023/08/23 07:05:14;;;;;;;13.90;12.25;;;;;;;;;;4989686;28;20802;-58
2023/08/23 07:07:39;;;;;;;15.77;12.02;;;;;;;;;;4992231;28;20175;-56
2023/08/23 07:10:05;;;;;;;17.37;11.73;;;;;;;;;;4992730;28;20125;-55
2023/08/23 07:12:30;;;;;;;12.13;10.93;;;;;;;;;;4997784;28;20195;-56
2023/08/23 07:14:56;;;;;;;15.52;11.00;;;;;;;;;;4998404;28;20416;-54
2023/08/23 07:17:21;;;;;;;13.87;11.17;;;;;;;;;;4994764;28;20093;-56
2023/08/23 07:19:48;;;;;;;14.80;10.75;;;;;;;;;;4998504;28;20050;-56
2023/08/23 07:22:13;;;;;;;13.75;10.60;;;;;;;;;;4998735;28;20038;-55
2023/08/23 07:24:39;;;;;;;13.30;10.50;;;;;;;;;;4993158;28;20043;-54
2023/08/23 07:27:04;;;;;;;14.63;10.82;;;;;;;;;;4991146;28;20214;-54
2023/08/23 07:29:29;;;;;;;13.45;10.27;;;;;;;;;;4993090;28;20050;-55
2023/08/23 07:31:55;;;;;;;12.50;10.50;;;;;;;;;;4994933;28;20423;-56
2023/08/23 07:34:20;;;;;;;13.90;10.47;;;;;;;;;;4994215;28;20280;-56
2023/08/23 07:36:46;;;;;;;12.52;10.35;;;;;;;;;;4992038;28;20093;-56
2023/08/23 07:39:11;;;;;;;13.40;10.13;;;;;;;;;;4999733;28;20497;-55
2023/08/23 07:41:36;;;;;;;12.20;10.03;;;;;;;;;;4983685;28;20296;-57
2023/08/23 07:44:01;;;;;;;16.90;10.53;;;;;;;;;;4993854;28;20117;-56
2023/08/23 07:46:27;;;;;;;15.60;9.80;;;;;;;;;;4990091;28;21266;-55
2023/08/23 07:48:52;;;;;;;11.93;10.20;;;;;;;;;;4993939;28;20496;-56
2023/08/23 07:51:17;;;;;;;13.13;10.00;;;;;;;;;;4992802;28;20500;-55
2023/08/23 07:53:43;;;;;;;11.95;10.23;;;;;;;;;;5003581;28;20293;-55
2023/08/23 07:56:10;;;;;;;11.60;10.18;;;;;;;;;;5003483;28;20431;-55
2023/08/23 07:58:38;;;;;;;13.30;10.20;;;;;;;;;;4985804;28;20605;-55
2023/08/23 08:01:04;;;;;;;12.05;9.88;;;;;;;;;;5003751;28;20030;-55
2023/08/23 08:03:29;;;;;;;13.65;9.82;;;;;;;;;;4985289;28;20082;-56
2023/08/23 08:05:55;;;;;;;15.30;10.20;;;;;;;;;;4985694;28;20029;-55
2023/08/23 08:08:20;;;;;;;11.27;9.80;;;;;;;;;;5002049;28;20352;-56
2023/08/23 08:10:45;;;;;;;11.10;9.93;;;;;;;;;;5003335;28;20277;-56
2023/08/23 08:13:10;;;;;;;12.30;10.07;;;;;;;;;;5003553;28;20089;-55
2023/08/23 08:15:36;;;;;;;14.73;10.20;;;;;;;;;;5003305;28;20650;-56
2023/08/23 08:18:02;;;;;;;12.53;10.20;;;;;;;;;;5003112;28;20261;-55
2023/08/23 08:20:27;;;;;;;13.02;10.27;;;;;;;;;;5003475;28;20057;-55
2023/08/23 08:22:52;;;;;;;11.77;10.47;;;;;;;;;;5003608;28;20455;-55
2023/08/23 08:25:18;;;;;;;12.63;10.30;;;;;;;;;;5003166;28;20245;-56
2023/08/23 08:27:43;;;;;;;12.27;9.80;;;;;;;;;;5018547;28;20024;-56
2023/08/23 08:30:08;;;;;;;11.67;10.07;;;;;;;;;;5000067;28;20014;-55
2023/08/23 08:32:34;;;;;;;11.18;9.68;;;;;;;;;;4999157;28;20026;-55
2023/08/23 08:35:00;;;;;;;13.90;10.30;;;;;;;;;;5006638;28;20113;-56
2023/08/23 08:37:25;;;;;;;12.80;9.73;;;;;;;;;;4989712;28;20028;-56
2023/08/23 08:39:50;;;;;;;11.23;9.43;;;;;;;;;;5007295;28;20411;-56
2023/08/23 08:42:16;;;;;;;11.00;9.07;;;;;;;;;;5006053;28;20092;-57
2023/08/23 08:44:42;;;;;;;13.73;10.25;;;;;;;;;;5005451;28;20253;-57
2023/08/23 08:47:07;;;;;;;11.90;9.82;;;;;;;;;;4990119;28;20018;-55
2023/08/23 08:49:32;;;;;;;12.37;10.23;;;;;;;;;;5007349;28;20026;-56
2023/08/23 08:51:58;;;;;;;12.43;10.15;;;;;;;;;;5006675;28;20040;-55
2023/08/23 08:54:23;;;;;;;10.93;9.55;;;;;;;;;;5006583;28;20805;-56
2023/08/23 08:56:48;;;;;;;11.63;9.60;;;;;;;;;;4989365;28;20041;-56
2023/08/23 08:59:14;;;;;;;12.07;9.27;;;;;;;;;;5007183;28;20324;-55
2023/08/23 09:01:39;;;;;;;11.60;9.43;;;;;;;;;;4989168;28;20356;-56
2023/08/23 09:04:04;;;;;;;12.93;9.30;;;;;;;;;;4977070;28;20031;-56
2023/08/23 09:06:30;;;;;;;17.23;9.90;;;;;;;;;;5011177;28;20108;-56
2023/08/23 09:08:55;;;;;;;11.48;9.60;;;;;;;;;;5009754;28;20129;-56
2023/08/23 09:11:20;;;;;;;11.68;9.50;;;;;;;;;;4997013;28;20495;-55
2023/08/23 09:13:46;;;;;;;9.98;8.98;;;;;;;;;;4996424;28;20381;-56
2023/08/23 09:16:12;;;;;;;12.18;8.93;;;;;;;;;;4994663;28;20030;-57
2023/08/23 09:18:42;;;;;;;11.02;8.85;;;;;;;;;;4990974;28;20468;-56
2023/08/23 09:21:07;;;;;;;13.20;8.93;;;;;;;;;;5010372;28;20032;-56
2023/08/23 09:23:33;;;;;;;12.23;8.73;;;;;;;;;;4996040;28;20033;-56
2023/08/23 09:25:58;;;;;;;9.18;8.23;;;;;;;;;;4997519;28;20280;-56
2023/08/23 09:28:28;;;;;;;10.77;8.47;;;;;;;;;;5012507;28;20500;-56
2023/08/23 09:30:54;;;;;;;9.77;8.77;;;;;;;;;;4994759;28;20368;-56
2023/08/23 09:33:19;;;;;;;9.10;8.10;;;;;;;;;;4994846;28;20172;-56
2023/08/23 09:35:48;;;;;;;10.00;8.15;;;;;;;;;;4992586;28;20084;-57
2023/08/23 09:38:17;;;;;;;9.48;8.43;;;;;;;;;;4995139;28;20038;-57
2023/08/23 09:40:42;;;;;;;8.85;7.95;;;;;;;;;;4993880;28;20040;-56
2023/08/23 09:43:07;;;;;;;10.27;8.13;;;;;;;;;;5010373;28;20042;-55
2023/08/23 09:45:32;;;;;;;9.27;7.27;;;;;;;;;;4994641;28;20041;-56
2023/08/23 09:48:02;;;;;;;10.55;8.18;;;;;;;;;;4995120;28;20129;-57
2023/08/23 09:50:27;;;;;;;9.13;7.57;;;;;;;;;;5008950;28;20067;-57
2023/08/23 09:52:58;;;;;;;10.10;7.70;;;;;;;;;;4992683;28;20061;-56
2023/08/23 09:55:23;;;;;;;8.27;7.38;;;;;;;;;;5007641;28;20679;-55
2023/08/23 09:57:48;;;;;;;8.00;7.20;;;;;;;;;;4991220;28;20089;-57
2023/08/23 10:00:14;;;;;;;9.60;7.28;;;;;;;;;;4996363;28;20343;-56
2023/08/23 10:02:39;;;;;;;9.20;7.10;;;;;;;;;;4993180;28;20042;-56
2023/08/23 10:05:06;;;;;;;9.43;7.82;;;;;;;;;;5009555;28;20674;-55
2023/08/23 10:07:34;;;;;;;9.10;7.82;;;;;;;;;;4992782;28;20066;-55
2023/08/23 10:09:59;;;;;;;8.30;7.22;;;;;;;;;;5011398;28;20049;-54
2023/08/23 10:12:25;;;;;;;9.35;7.55;;;;;;;;;;5008404;28;20041;-55
2023/08/23 10:14:50;;;;;;;8.40;7.50;;;;;;;;;;4992185;28;20044;-54
2023/08/23 10:17:16;;;;;;;9.17;7.43;;;;;;;;;;4992049;28;20041;-55
2023/08/23 10:19:42;;;;;;;9.45;7.93;;;;;;;;;;5009231;28;20136;-54
2023/08/23 10:22:07;;;;;;;7.55;6.75;;;;;;;;;;4994876;28;20081;-55
2023/08/23 10:24:33;;;;;;;8.93;7.65;;;;;;;;;;4992269;28;20121;-55
2023/08/23 10:27:03;;;;;;;9.10;8.20;;;;;;;;;;4992883;28;20373;-54
2023/08/23 10:29:29;;;;;;;8.38;7.47;;;;;;;;;;4995330;28;20053;-55
2023/08/23 10:31:54;;;;;;;8.07;7.27;;;;;;;;;;4994145;28;20598;-54
2023/08/23 10:34:26;;;;;;;9.88;7.35;;;;;;;;;;4991207;28;20288;-55
2023/08/23 10:36:52;;;;;;;10.10;7.32;;;;;;;;;;4992335;28;20038;-55
2023/08/23 10:39:19;;;;;;;9.38;7.80;;;;;;;;;;4979825;28;20104;-55
2023/08/23 10:41:44;;;;;;;8.02;6.93;;;;;;;;;;5006072;28;20077;-54
2023/08/23 10:44:16;;;;;;;8.67;6.97;;;;;;;;;;4991220;28;20074;-55
2023/08/23 10:46:42;;;;;;;8.60;7.70;;;;;;;;;;5006574;28;20049;-54
2023/08/23 10:49:07;;;;;;;9.52;8.07;;;;;;;;;;4992993;28;20030;-55
2023/08/23 10:51:33;;;;;;;10.18;8.00;;;;;;;;;;5008202;28;20416;-55
2023/08/23 10:53:58;;;;;;;7.93;6.70;;;;;;;;;;5008020;28;20519;-55
2023/08/23 10:56:23;;;;;;;8.73;7.00;;;;;;;;;;4974332;28;20049;-55
2023/08/23 10:58:49;;;;;;;9.35;7.28;;;;;;;;;;4996591;28;20336;-56
2023/08/23 11:01:14;;;;;;;9.77;6.70;;;;;;;;;;4990364;28;20124;-55
2023/08/23 11:03:39;;;;;;;8.07;6.57;;;;;;;;;;4990843;28;20061;-54
2023/08/23 11:06:04;;;;;;;9.63;7.33;;;;;;;;;;5004685;28;20296;-55
2023/08/23 11:08:30;;;;;;;7.72;6.55;;;;;;;;;;5006619;28;20038;-55
2023/08/23 11:10:55;;;;;;;9.73;7.72;;;;;;;;;;4993569;28;20052;-55
2023/08/23 11:13:20;;;;;;;8.13;7.30;;;;;;;;;;4991624;28;20029;-54
2023/08/23 11:15:45;;;;;;;8.10;7.30;;;;;;;;;;5006315;28;20332;-55
2023/08/23 11:18:11;;;;;;;9.97;7.60;;;;;;;;;;4989920;28;20041;-55
2023/08/23 11:20:36;;;;;;;10.15;7.22;;;;;;;;;;4992505;28;20076;-55
2023/08/23 11:23:02;;;;;;;8.35;7.00;;;;;;;;;;5001911;28;20132;-56
2023/08/23 11:25:27;;;;;;;12.48;7.47;;;;;;;;;;4981045;28;22267;-57
2023/08/23 11:27:52;;;;;;;9.20;7.07;;;;;;;;;;4989433;28;20137;-56
2023/08/23 11:30:20;;;;;;;9.93;7.50;;;;;;;;;;5012648;28;20301;-56
2023/08/23 11:32:46;;;;;;;8.50;7.10;;;;;;;;;;4993989;28;20080;-56
2023/08/23 11:35:12;;;;;;;8.48;6.88;;;;;;;;;;4997482;28;20077;-55
2023/08/23 11:37:37;;;;;;;8.05;6.88;;;;;;;;;;5011848;28;20049;-55
2023/08/23 11:40:07;;;;;;;8.30;6.80;;;;;;;;;;4994246;28;20058;-56
2023/08/23 11:42:33;;;;;;;9.20;6.93;;;;;;;;;;4995364;28;20131;-55
2023/08/23 11:44:58;;;;;;;8.40;6.13;;;;;;;;;;4996522;28;20099;-55
2023/08/23 11:47:27;;;;;;;7.10;6.27;;;;;;;;;;4994643;28;20093;-56
2023/08/23 11:49:55;;;;;;;7.38;6.47;;;;;;;;;;4994553;28;20740;-56
2023/08/23 11:52:20;;;;;;;6.80;6.10;;;;;;;;;;4992620;28;20047;-55
2023/08/23 11:54:45;;;;;;;7.60;6.23;;;;;;;;;;4977886;28;20038;-57
2023/08/23 11:57:14;;;;;;;7.40;5.67;;;;;;;;;;4982661;28;20358;-56
2023/08/23 11:59:39;;;;;;;7.03;5.63;;;;;;;;;;4994314;28;20398;-55
2023/08/23 12:02:06;;;;;;;6.47;5.80;;;;;;;;;;4997551;28;20485;-56
2023/08/23 12:04:32;;;;;;;8.98;6.10;;;;;;;;;;4999098;28;20108;-55
2023/08/23 12:06:57;;;;;;;7.55;5.53;;;;;;;;;;5012095;28;20072;-56
2023/08/23 12:09:24;;;;;;;6.80;5.80;;;;;;;;;;5001088;28;20543;-56
2023/08/23 12:11:49;;;;;;;7.20;5.65;;;;;;;;;;4995431;28;20797;-55
2023/08/23 12:14:14;;;;;;;7.50;5.87;;;;;;;;;;4987871;28;20049;-56
2023/08/23 12:16:40;;;;;;;6.70;5.90;;;;;;;;;;4986558;28;20085;-57
2023/08/23 12:19:05;;;;;;;6.80;6.07;;;;;;;;;;4979777;28;20582;-55
2023/08/23 12:21:31;;;;;;;7.80;5.90;;;;;;;;;;4994885;28;20343;-55
2023/08/23 12:23:56;;;;;;;7.55;6.47;;;;;;;;;;4987156;28;20068;-56
2023/08/23 12:26:22;;;;;;;7.97;5.87;;;;;;;;;;4984042;28;20504;-55
2023/08/23 12:28:47;;;;;;;7.03;6.30;;;;;;;;;;5004053;28;20321;-56
2023/08/23 12:31:15;;;;;;;7.27;6.40;;;;;;;;;;5004266;28;20917;-56
2023/08/23 12:33:41;;;;;;;8.60;6.68;;;;;;;;;;4983248;28;20427;-56
2023/08/23 12:36:07;;;;;;;8.10;6.32;;;;;;;;;;5015184;28;20049;-57
2023/08/23 12:38:32;;;;;;;9.25;6.53;;;;;;;;;;4979987;28;20058;-55
2023/08/23 12:40:58;;;;;;;7.30;6.17;;;;;;;;;;4994676;28;20038;-55
2023/08/23 12:43:23;;;;;;;8.67;6.87;;;;;;;;;;4999396;28;20794;-55
2023/08/23 12:45:48;;;;;;;8.40;6.90;;;;;;;;;;5006991;28;20273;-56
2023/08/23 12:48:15;;;;;;;7.37;6.43;;;;;;;;;;5006295;28;20280;-57
2023/08/23 12:50:40;;;;;;;7.32;5.90;;;;;;;;;;5005460;28;20635;-55
2023/08/23 12:53:05;;;;;;;8.73;6.23;;;;;;;;;;4989666;28;20096;-55
2023/08/23 12:55:31;;;;;;;7.60;6.80;;;;;;;;;;5006738;28;20446;-55
2023/08/23 12:57:56;;;;;;;8.73;6.55;;;;;;;;;;5006609;28;20292;-55
2023/08/23 13:00:21;;;;;;;7.40;5.83;;;;;;;;;;5006409;28;20589;-56
2023/08/23 13:02:46;;;;;;;8.57;6.72;;;;;;;;;;5006324;28;20052;-55
2023/08/23 13:05:12;;;;;;;10.23;6.53;;;;;;;;;;4988841;28;20045;-55
2023/08/23 13:07:37;;;;;;;8.30;6.10;;;;;;;;;;4988634;28;20129;-55
2023/08/23 13:10:02;;;;;;;9.13;6.68;;;;;;;;;;4988071;28;20065;-56
2023/08/23 13:12:27;;;;;;;8.35;6.40;;;;;;;;;;4988850;28;20586;-56
2023/08/23 13:14:53;;;;;;;9.50;6.60;;;;;;;;;;5006239;28;20038;-56
2023/08/23 13:17:18;;;;;;;8.23;6.53;;;;;;;;;;4988341;28;20056;-57
2023/08/23 13:19:44;;;;;;;7.55;6.50;;;;;;;;;;4988341;28;20058;-55
2023/08/23 13:22:09;;;;;;;8.60;6.37;;;;;;;;;;5006377;28;20029;-55
2023/08/23 13:24:35;;;;;;;6.97;6.18;;;;;;;;;;5006084;28;20046;-55
2023/08/23 13:27:00;;;;;;;6.93;6.23;;;;;;;;;;5005196;28;20413;-57
2023/08/23 13:29:25;;;;;;;7.45;6.65;;;;;;;;;;4987574;28;20470;-56
2023/08/23 13:31:51;;;;;;;7.80;6.27;;;;;;;;;;5005762;28;20030;-55
2023/08/23 13:34:16;;;;;;;6.63;5.50;;;;;;;;;;4987555;28;20040;-55
2023/08/23 13:36:42;;;;;;;7.53;6.37;;;;;;;;;;5005464;28;20507;-56
2023/08/23 13:39:07;;;;;;;7.55;6.00;;;;;;;;;;5005871;28;20751;-55
2023/08/23 13:41:33;;;;;;;6.82;6.13;;;;;;;;;;5004073;28;20045;-55
2023/08/23 13:43:58;;;;;;;7.80;5.93;;;;;;;;;;5005812;28;20483;-56
2023/08/23 13:46:23;;;;;;;7.90;6.13;;;;;;;;;;5005614;28;20081;-55
2023/08/23 13:48:48;;;;;;;6.83;5.90;;;;;;;;;;5005617;28;20643;-55
2023/08/23 13:51:14;;;;;;;6.90;5.43;;;;;;;;;;5005547;28;20041;-56
2023/08/23 13:53:39;;;;;;;6.53;5.80;;;;;;;;;;4988049;28;20277;-55
2023/08/23 13:56:04;;;;;;;6.53;5.53;;;;;;;;;;5009981;28;20288;-55
2023/08/23 13:58:29;;;;;;;9.73;5.53;;;;;;;;;;5007557;28;20037;-55
2023/08/23 14:00:57;;;;;;;7.25;5.45;;;;;;;;;;5022438;28;20802;-56
2023/08/23 14:03:22;;;;;;;9.48;5.97;;;;;;;;;;5010906;28;20128;-56
2023/08/23 14:05:55;;;;;;;6.97;5.72;;;;;;;;;;5009750;28;20813;-56
2023/08/23 14:08:20;;;;;;;7.30;6.15;;;;;;;;;;4971766;28;20205;-55
2023/08/23 14:10:46;;;;;;;6.83;5.60;;;;;;;;;;5005800;28;20532;-56
2023/08/23 14:13:11;;;;;;;7.83;6.10;;;;;;;;;;4987670;28;20896;-55
2023/08/23 14:15:36;;;;;;;7.13;5.73;;;;;;;;;;5005024;28;20834;-55
2023/08/23 14:18:01;;;;;;;7.07;5.60;;;;;;;;;;5004900;28;20574;-56